sensor_id;sensor_type;location;lat;lon;timestamp;temperature;humidity
20866;DHT22;10593;48.398;10.698;2023-06-24T00:01:28;22.60;51.40
20866;DHT22;10593;48.398;10.698;2023-06-24T00:03:54;22.60;51.50
20866;DHT22;10593;48.398;10.698;2023-06-24T00:06:20;22.60;51.60
20866;DHT22;10593;48.398;10.698;2023-06-24T00:08:48;22.60;51.60
20866;DHT22;10593;48.398;10.698;2023-06-24T00:11:15;22.60;51.60
20866;DHT22;10593;48.398;10.698;2023-06-24T00:13:42;22.50;51.50
20866;DHT22;10593;48.398;10.698;2023-06-24T00:16:09;22.60;51.60
20866;DHT22;10593;48.398;10.698;2023-06-24T00:18:36;22.60;51.60
20866;DHT22;10593;48.398;10.698;2023-06-24T00:21:06;22.50;51.50
20866;DHT22;10593;48.398;10.698;2023-06-24T00:23:32;22.50;51.60
20866;DHT22;10593;48.398;10.698;2023-06-24T00:26:00;22.50;51.50
20866;DHT22;10593;48.398;10.698;2023-06-24T00:28:29;22.50;51.50
20866;DHT22;10593;48.398;10.698;2023-06-24T00:30:54;22.50;51.60
20866;DHT22;10593;48.398;10.698;2023-06-24T00:33:20;22.50;51.50
20866;DHT22;10593;48.398;10.698;2023-06-24T00:35:46;22.50;51.50
20866;DHT22;10593;48.398;10.698;2023-06-24T00:38:12;22.50;51.50
20866;DHT22;10593;48.398;10.698;2023-06-24T00:40:38;22.50;51.50
20866;DHT22;10593;48.398;10.698;2023-06-24T00:43:05;22.40;51.70
20866;DHT22;10593;48.398;10.698;2023-06-24T00:45:33;22.40;52.00
20866;DHT22;10593;48.398;10.698;2023-06-24T00:47:58;22.40;52.10
20866;DHT22;10593;48.398;10.698;2023-06-24T00:50:24;22.40;52.20
20866;DHT22;10593;48.398;10.698;2023-06-24T00:52:50;22.40;52.30
20866;DHT22;10593;48.398;10.698;2023-06-24T00:55:16;22.40;52.40
20866;DHT22;10593;48.398;10.698;2023-06-24T00:57:47;22.40;52.40
20866;DHT22;10593;48.398;10.698;2023-06-24T01:00:18;22.40;52.60
20866;DHT22;10593;48.398;10.698;2023-06-24T01:02:47;22.40;52.50
20866;DHT22;10593;48.398;10.698;2023-06-24T01:05:13;22.30;52.50
20866;DHT22;10593;48.398;10.698;2023-06-24T01:07:41;22.30;52.50
20866;DHT22;10593;48.398;10.698;2023-06-24T01:10:09;22.30;52.60
20866;DHT22;10593;48.398;10.698;2023-06-24T01:12:38;22.30;52.50
20866;DHT22;10593;48.398;10.698;2023-06-24T01:15:08;22.30;52.50
20866;DHT22;10593;48.398;10.698;2023-06-24T01:23:18;22.30;52.30
20866;DHT22;10593;48.398;10.698;2023-06-24T01:29:19;22.20;52.30
20866;DHT22;10593;48.398;10.698;2023-06-24T01:32:26;22.20;52.30
20866;DHT22;10593;48.398;10.698;2023-06-24T01:35:02;22.20;52.40
20866;DHT22;10593;48.398;10.698;2023-06-24T01:37:42;22.20;52.40
20866;DHT22;10593;48.398;10.698;2023-06-24T01:40:22;22.20;52.50
20866;DHT22;10593;48.398;10.698;2023-06-24T01:42:52;22.20;52.40
20866;DHT22;10593;48.398;10.698;2023-06-24T01:45:40;22.20;52.40
20866;DHT22;10593;48.398;10.698;2023-06-24T01:48:15;22.10;52.60
20866;DHT22;10593;48.398;10.698;2023-06-24T01:51:01;22.10;52.70
20866;DHT22;10593;48.398;10.698;2023-06-24T01:53:36;22.10;52.80
20866;DHT22;10593;48.398;10.698;2023-06-24T01:56:06;22.10;52.90
20866;DHT22;10593;48.398;10.698;2023-06-24T01:58:34;22.10;52.80
20866;DHT22;10593;48.398;10.698;2023-06-24T02:01:02;22.10;52.80
20866;DHT22;10593;48.398;10.698;2023-06-24T02:03:28;22.00;52.80
20866;DHT22;10593;48.398;10.698;2023-06-24T02:05:56;22.10;52.90
20866;DHT22;10593;48.398;10.698;2023-06-24T02:08:24;22.10;53.00
20866;DHT22;10593;48.398;10.698;2023-06-24T02:10:51;22.00;52.90
20866;DHT22;10593;48.398;10.698;2023-06-24T02:13:18;22.00;52.90
20866;DHT22;10593;48.398;10.698;2023-06-24T02:15:46;22.00;52.80
20866;DHT22;10593;48.398;10.698;2023-06-24T02:18:15;22.00;52.90
20866;DHT22;10593;48.398;10.698;2023-06-24T02:20:43;22.00;52.90
20866;DHT22;10593;48.398;10.698;2023-06-24T02:23:09;22.00;53.10
20866;DHT22;10593;48.398;10.698;2023-06-24T02:25:37;22.00;53.10
20866;DHT22;10593;48.398;10.698;2023-06-24T02:28:08;21.90;53.00
20866;DHT22;10593;48.398;10.698;2023-06-24T02:30:35;22.00;53.10
20866;DHT22;10593;48.398;10.698;2023-06-24T02:33:03;21.90;53.10
20866;DHT22;10593;48.398;10.698;2023-06-24T02:35:29;22.00;53.10
20866;DHT22;10593;48.398;10.698;2023-06-24T02:37:55;21.90;53.00
20866;DHT22;10593;48.398;10.698;2023-06-24T02:40:20;21.90;53.10
20866;DHT22;10593;48.398;10.698;2023-06-24T02:42:46;21.90;53.10
20866;DHT22;10593;48.398;10.698;2023-06-24T02:45:12;21.90;52.90
20866;DHT22;10593;48.398;10.698;2023-06-24T02:47:41;21.90;52.80
20866;DHT22;10593;48.398;10.698;2023-06-24T02:50:10;21.90;52.70
20866;DHT22;10593;48.398;10.698;2023-06-24T02:52:37;21.90;52.70
20866;DHT22;10593;48.398;10.698;2023-06-24T02:55:05;21.90;52.80
20866;DHT22;10593;48.398;10.698;2023-06-24T02:57:31;21.90;53.00
20866;DHT22;10593;48.398;10.698;2023-06-24T02:59:58;21.90;53.30
20866;DHT22;10593;48.398;10.698;2023-06-24T03:02:24;21.90;53.30
20866;DHT22;10593;48.398;10.698;2023-06-24T03:04:50;21.90;53.40
20866;DHT22;10593;48.398;10.698;2023-06-24T03:07:17;21.90;53.50
20866;DHT22;10593;48.398;10.698;2023-06-24T03:09:47;21.90;53.60
20866;DHT22;10593;48.398;10.698;2023-06-24T03:12:13;21.80;53.50
20866;DHT22;10593;48.398;10.698;2023-06-24T03:14:38;21.80;53.50
20866;DHT22;10593;48.398;10.698;2023-06-24T03:17:04;21.80;53.70
20866;DHT22;10593;48.398;10.698;2023-06-24T03:19:30;21.80;53.70
20866;DHT22;10593;48.398;10.698;2023-06-24T03:21:55;21.80;53.60
20866;DHT22;10593;48.398;10.698;2023-06-24T03:24:21;21.80;53.60
20866;DHT22;10593;48.398;10.698;2023-06-24T03:26:47;21.80;53.50
20866;DHT22;10593;48.398;10.698;2023-06-24T03:29:12;21.80;53.40
20866;DHT22;10593;48.398;10.698;2023-06-24T03:31:38;21.80;53.40
20866;DHT22;10593;48.398;10.698;2023-06-24T03:34:09;21.80;53.40
20866;DHT22;10593;48.398;10.698;2023-06-24T03:36:36;21.80;53.40
20866;DHT22;10593;48.398;10.698;2023-06-24T03:39:04;21.70;53.30
20866;DHT22;10593;48.398;10.698;2023-06-24T03:41:30;21.70;53.30
20866;DHT22;10593;48.398;10.698;2023-06-24T03:43:55;21.70;53.30
20866;DHT22;10593;48.398;10.698;2023-06-24T03:46:21;21.70;53.30
20866;DHT22;10593;48.398;10.698;2023-06-24T03:48:49;21.70;53.30
20866;DHT22;10593;48.398;10.698;2023-06-24T03:51:15;21.70;53.40
20866;DHT22;10593;48.398;10.698;2023-06-24T03:53:41;21.70;53.40
20866;DHT22;10593;48.398;10.698;2023-06-24T03:56:07;21.70;53.40
20866;DHT22;10593;48.398;10.698;2023-06-24T03:58:32;21.70;53.50
20866;DHT22;10593;48.398;10.698;2023-06-24T04:01:00;21.60;53.40
20866;DHT22;10593;48.398;10.698;2023-06-24T04:03:27;21.60;53.40
20866;DHT22;10593;48.398;10.698;2023-06-24T04:05:55;21.60;53.40
20866;DHT22;10593;48.398;10.698;2023-06-24T04:08:22;21.60;53.20
20866;DHT22;10593;48.398;10.698;2023-06-24T04:10:50;21.60;53.10
20866;DHT22;10593;48.398;10.698;2023-06-24T04:13:16;21.60;53.10
20866;DHT22;10593;48.398;10.698;2023-06-24T04:15:42;21.60;53.10
20866;DHT22;10593;48.398;10.698;2023-06-24T04:18:08;21.60;52.90
20866;DHT22;10593;48.398;10.698;2023-06-24T04:20:33;21.50;52.80
20866;DHT22;10593;48.398;10.698;2023-06-24T04:22:59;21.60;53.00
20866;DHT22;10593;48.398;10.698;2023-06-24T04:25:26;21.60;53.10
20866;DHT22;10593;48.398;10.698;2023-06-24T04:27:51;21.50;53.00
20866;DHT22;10593;48.398;10.698;2023-06-24T04:30:17;21.60;53.30
20866;DHT22;10593;48.398;10.698;2023-06-24T04:32:43;21.50;53.40
20866;DHT22;10593;48.398;10.698;2023-06-24T04:35:09;21.50;53.50
20866;DHT22;10593;48.398;10.698;2023-06-24T04:37:34;21.50;53.50
20866;DHT22;10593;48.398;10.698;2023-06-24T04:40:00;21.50;53.60
20866;DHT22;10593;48.398;10.698;2023-06-24T04:42:25;21.50;53.70
20866;DHT22;10593;48.398;10.698;2023-06-24T04:44:51;21.60;53.90
20866;DHT22;10593;48.398;10.698;2023-06-24T04:47:17;21.60;53.90
20866;DHT22;10593;48.398;10.698;2023-06-24T04:49:44;21.60;53.90
20866;DHT22;10593;48.398;10.698;2023-06-24T04:52:11;21.60;53.90
20866;DHT22;10593;48.398;10.698;2023-06-24T04:54:37;21.60;53.90
20866;DHT22;10593;48.398;10.698;2023-06-24T04:57:08;21.60;53.80
20866;DHT22;10593;48.398;10.698;2023-06-24T04:59:35;21.60;53.90
20866;DHT22;10593;48.398;10.698;2023-06-24T05:02:01;21.70;53.90
20866;DHT22;10593;48.398;10.698;2023-06-24T05:04:28;21.70;54.00
20866;DHT22;10593;48.398;10.698;2023-06-24T05:06:53;21.70;54.00
20866;DHT22;10593;48.398;10.698;2023-06-24T05:09:19;21.70;54.20
20866;DHT22;10593;48.398;10.698;2023-06-24T05:11:45;21.70;54.20
20866;DHT22;10593;48.398;10.698;2023-06-24T05:14:10;21.70;54.30
20866;DHT22;10593;48.398;10.698;2023-06-24T05:16:36;21.80;54.40
20866;DHT22;10593;48.398;10.698;2023-06-24T05:19:01;21.80;54.40
20866;DHT22;10593;48.398;10.698;2023-06-24T05:21:27;21.80;54.40
20866;DHT22;10593;48.398;10.698;2023-06-24T05:23:53;21.80;54.40
20866;DHT22;10593;48.398;10.698;2023-06-24T05:26:18;21.90;54.20
20866;DHT22;10593;48.398;10.698;2023-06-24T05:28:44;21.90;53.60
20866;DHT22;10593;48.398;10.698;2023-06-24T05:31:09;21.90;53.30
20866;DHT22;10593;48.398;10.698;2023-06-24T05:33:35;22.00;53.10
20866;DHT22;10593;48.398;10.698;2023-06-24T05:36:01;22.00;52.90
20866;DHT22;10593;48.398;10.698;2023-06-24T05:38:26;22.00;52.90
20866;DHT22;10593;48.398;10.698;2023-06-24T05:40:52;22.10;52.80
20866;DHT22;10593;48.398;10.698;2023-06-24T05:43:17;22.10;52.80
20866;DHT22;10593;48.398;10.698;2023-06-24T05:45:43;22.10;52.60
20866;DHT22;10593;48.398;10.698;2023-06-24T05:48:09;22.20;52.50
20866;DHT22;10593;48.398;10.698;2023-06-24T05:50:34;22.20;52.30
20866;DHT22;10593;48.398;10.698;2023-06-24T05:53:00;22.30;52.40
20866;DHT22;10593;48.398;10.698;2023-06-24T05:55:26;22.30;52.20
20866;DHT22;10593;48.398;10.698;2023-06-24T05:57:51;22.30;52.10
20866;DHT22;10593;48.398;10.698;2023-06-24T06:00:18;22.40;52.70
20866;DHT22;10593;48.398;10.698;2023-06-24T06:02:44;22.40;52.10
20866;DHT22;10593;48.398;10.698;2023-06-24T06:05:09;22.50;52.10
20866;DHT22;10593;48.398;10.698;2023-06-24T06:07:35;22.50;52.10
20866;DHT22;10593;48.398;10.698;2023-06-24T06:10:04;22.50;52.20
20866;DHT22;10593;48.398;10.698;2023-06-24T06:12:31;22.60;52.10
20866;DHT22;10593;48.398;10.698;2023-06-24T06:14:57;22.60;52.10
20866;DHT22;10593;48.398;10.698;2023-06-24T06:17:23;22.70;52.10
20866;DHT22;10593;48.398;10.698;2023-06-24T06:19:49;22.70;52.10
20866;DHT22;10593;48.398;10.698;2023-06-24T06:22:14;22.70;51.80
20866;DHT22;10593;48.398;10.698;2023-06-24T06:24:41;22.80;51.80
20866;DHT22;10593;48.398;10.698;2023-06-24T06:27:10;22.80;51.70
20866;DHT22;10593;48.398;10.698;2023-06-24T06:29:36;22.90;51.80
20866;DHT22;10593;48.398;10.698;2023-06-24T06:32:02;22.90;51.40
20866;DHT22;10593;48.398;10.698;2023-06-24T06:34:28;23.00;51.50
20866;DHT22;10593;48.398;10.698;2023-06-24T06:36:54;23.00;51.60
20866;DHT22;10593;48.398;10.698;2023-06-24T06:39:19;23.00;51.10
20866;DHT22;10593;48.398;10.698;2023-06-24T06:41:45;23.10;51.10
20866;DHT22;10593;48.398;10.698;2023-06-24T06:44:10;23.10;50.80
20866;DHT22;10593;48.398;10.698;2023-06-24T06:46:36;23.10;50.60
20866;DHT22;10593;48.398;10.698;2023-06-24T06:49:02;23.10;50.60
20866;DHT22;10593;48.398;10.698;2023-06-24T06:51:27;23.20;50.70
20866;DHT22;10593;48.398;10.698;2023-06-24T06:53:53;23.20;50.70
20866;DHT22;10593;48.398;10.698;2023-06-24T06:56:22;23.30;50.60
20866;DHT22;10593;48.398;10.698;2023-06-24T06:58:49;23.30;50.30
20866;DHT22;10593;48.398;10.698;2023-06-24T07:01:17;23.30;50.10
20866;DHT22;10593;48.398;10.698;2023-06-24T07:03:43;23.40;50.10
20866;DHT22;10593;48.398;10.698;2023-06-24T07:06:08;23.40;50.10
20866;DHT22;10593;48.398;10.698;2023-06-24T07:08:34;23.50;50.00
20866;DHT22;10593;48.398;10.698;2023-06-24T07:11:01;23.50;50.00
20866;DHT22;10593;48.398;10.698;2023-06-24T07:13:27;23.50;49.80
20866;DHT22;10593;48.398;10.698;2023-06-24T07:15:53;23.50;49.60
20866;DHT22;10593;48.398;10.698;2023-06-24T07:18:19;23.60;49.40
20866;DHT22;10593;48.398;10.698;2023-06-24T07:20:44;23.70;49.40
20866;DHT22;10593;48.398;10.698;2023-06-24T07:23:10;23.70;49.00
20866;DHT22;10593;48.398;10.698;2023-06-24T07:25:36;23.70;48.60
20866;DHT22;10593;48.398;10.698;2023-06-24T07:28:02;23.70;48.20
20866;DHT22;10593;48.398;10.698;2023-06-24T07:30:28;23.80;48.50
20866;DHT22;10593;48.398;10.698;2023-06-24T07:32:54;23.80;48.30
20866;DHT22;10593;48.398;10.698;2023-06-24T07:35:20;23.80;48.20
20866;DHT22;10593;48.398;10.698;2023-06-24T07:37:45;23.90;48.30
20866;DHT22;10593;48.398;10.698;2023-06-24T07:40:11;23.90;48.10
20866;DHT22;10593;48.398;10.698;2023-06-24T07:42:37;23.90;48.10
20866;DHT22;10593;48.398;10.698;2023-06-24T07:45:03;23.90;48.00
20866;DHT22;10593;48.398;10.698;2023-06-24T07:47:29;24.00;47.60
20866;DHT22;10593;48.398;10.698;2023-06-24T07:49:54;24.00;47.50
20866;DHT22;10593;48.398;10.698;2023-06-24T07:52:20;24.10;47.70
20866;DHT22;10593;48.398;10.698;2023-06-24T07:54:46;24.10;47.90
20866;DHT22;10593;48.398;10.698;2023-06-24T07:57:11;24.10;47.50
20866;DHT22;10593;48.398;10.698;2023-06-24T07:59:37;24.10;47.20
20866;DHT22;10593;48.398;10.698;2023-06-24T08:02:03;24.20;46.90
20866;DHT22;10593;48.398;10.698;2023-06-24T08:04:28;24.20;46.60
20866;DHT22;10593;48.398;10.698;2023-06-24T08:06:54;24.20;46.90
20866;DHT22;10593;48.398;10.698;2023-06-24T08:09:20;24.20;46.70
20866;DHT22;10593;48.398;10.698;2023-06-24T08:11:46;24.20;46.70
20866;DHT22;10593;48.398;10.698;2023-06-24T08:14:11;24.20;47.00
20866;DHT22;10593;48.398;10.698;2023-06-24T08:16:37;24.20;47.00
20866;DHT22;10593;48.398;10.698;2023-06-24T08:19:03;24.20;46.60
20866;DHT22;10593;48.398;10.698;2023-06-24T08:21:28;24.30;46.70
20866;DHT22;10593;48.398;10.698;2023-06-24T08:23:55;24.30;46.80
20866;DHT22;10593;48.398;10.698;2023-06-24T08:26:21;24.30;46.40
20866;DHT22;10593;48.398;10.698;2023-06-24T08:28:47;24.40;46.50
20866;DHT22;10593;48.398;10.698;2023-06-24T08:31:13;24.40;46.60
20866;DHT22;10593;48.398;10.698;2023-06-24T08:33:42;24.50;46.50
20866;DHT22;10593;48.398;10.698;2023-06-24T08:36:09;24.50;46.10
20866;DHT22;10593;48.398;10.698;2023-06-24T08:38:35;24.60;46.20
20866;DHT22;10593;48.398;10.698;2023-06-24T08:41:00;24.70;46.30
20866;DHT22;10593;48.398;10.698;2023-06-24T08:43:26;24.70;46.00
20866;DHT22;10593;48.398;10.698;2023-06-24T08:45:52;24.70;46.30
20866;DHT22;10593;48.398;10.698;2023-06-24T08:48:20;24.70;45.60
20866;DHT22;10593;48.398;10.698;2023-06-24T08:50:49;24.70;45.80
20866;DHT22;10593;48.398;10.698;2023-06-24T08:53:18;24.80;46.00
20866;DHT22;10593;48.398;10.698;2023-06-24T08:55:46;24.80;45.60
20866;DHT22;10593;48.398;10.698;2023-06-24T08:58:13;24.80;45.80
20866;DHT22;10593;48.398;10.698;2023-06-24T09:00:39;24.80;45.80
20866;DHT22;10593;48.398;10.698;2023-06-24T09:03:08;24.80;45.50
20866;DHT22;10593;48.398;10.698;2023-06-24T09:05:33;24.90;45.70
20866;DHT22;10593;48.398;10.698;2023-06-24T09:07:59;24.90;45.20
20866;DHT22;10593;48.398;10.698;2023-06-24T09:10:35;24.90;44.80
20866;DHT22;10593;48.398;10.698;2023-06-24T09:13:03;24.90;44.60
20866;DHT22;10593;48.398;10.698;2023-06-24T09:15:35;24.90;44.60
20866;DHT22;10593;48.398;10.698;2023-06-24T09:18:02;24.90;44.60
20866;DHT22;10593;48.398;10.698;2023-06-24T09:20:32;24.90;44.60
20866;DHT22;10593;48.398;10.698;2023-06-24T09:23:02;24.90;44.30
20866;DHT22;10593;48.398;10.698;2023-06-24T09:25:28;24.90;44.60
20866;DHT22;10593;48.398;10.698;2023-06-24T09:28:01;24.90;44.90
20866;DHT22;10593;48.398;10.698;2023-06-24T09:30:28;24.90;44.90
20866;DHT22;10593;48.398;10.698;2023-06-24T09:32:55;24.90;44.60
20866;DHT22;10593;48.398;10.698;2023-06-24T09:35:23;25.00;44.40
20866;DHT22;10593;48.398;10.698;2023-06-24T09:37:57;25.00;45.20
20866;DHT22;10593;48.398;10.698;2023-06-24T09:40:24;25.10;44.00
20866;DHT22;10593;48.398;10.698;2023-06-24T09:45:27;25.20;44.60
20866;DHT22;10593;48.398;10.698;2023-06-24T09:47:55;25.20;43.90
20866;DHT22;10593;48.398;10.698;2023-06-24T09:50:23;25.20;43.70
20866;DHT22;10593;48.398;10.698;2023-06-24T09:52:50;25.20;43.60
20866;DHT22;10593;48.398;10.698;2023-06-24T09:55:17;25.20;43.80
20866;DHT22;10593;48.398;10.698;2023-06-24T09:57:50;25.20;44.20
20866;DHT22;10593;48.398;10.698;2023-06-24T10:00:19;25.20;44.20
20866;DHT22;10593;48.398;10.698;2023-06-24T10:02:45;25.20;43.80
20866;DHT22;10593;48.398;10.698;2023-06-24T10:05:13;25.20;43.90
20866;DHT22;10593;48.398;10.698;2023-06-24T10:07:40;25.20;44.00
20866;DHT22;10593;48.398;10.698;2023-06-24T10:10:07;25.20;44.10
20866;DHT22;10593;48.398;10.698;2023-06-24T10:12:35;25.20;43.60
20866;DHT22;10593;48.398;10.698;2023-06-24T10:15:02;25.20;43.50
20866;DHT22;10593;48.398;10.698;2023-06-24T10:17:29;25.10;43.50
20866;DHT22;10593;48.398;10.698;2023-06-24T10:19:55;25.10;43.80
20866;DHT22;10593;48.398;10.698;2023-06-24T10:22:25;25.10;43.80
20866;DHT22;10593;48.398;10.698;2023-06-24T10:24:52;25.10;43.80
20866;DHT22;10593;48.398;10.698;2023-06-24T10:27:20;25.00;44.00
20866;DHT22;10593;48.398;10.698;2023-06-24T10:29:49;25.00;43.90
20866;DHT22;10593;48.398;10.698;2023-06-24T10:32:18;25.00;43.90
20866;DHT22;10593;48.398;10.698;2023-06-24T10:34:47;25.00;43.60
20866;DHT22;10593;48.398;10.698;2023-06-24T10:37:21;25.10;43.70
20866;DHT22;10593;48.398;10.698;2023-06-24T10:39:57;25.10;44.00
20866;DHT22;10593;48.398;10.698;2023-06-24T10:47:50;25.20;42.50
20866;DHT22;10593;48.398;10.698;2023-06-24T10:50:25;25.20;42.90
20866;DHT22;10593;48.398;10.698;2023-06-24T10:52:52;25.20;43.10
20866;DHT22;10593;48.398;10.698;2023-06-24T10:55:25;25.20;43.40
20866;DHT22;10593;48.398;10.698;2023-06-24T10:57:51;25.20;43.30
20866;DHT22;10593;48.398;10.698;2023-06-24T11:00:20;25.20;43.30
20866;DHT22;10593;48.398;10.698;2023-06-24T11:02:48;25.20;43.20
20866;DHT22;10593;48.398;10.698;2023-06-24T11:05:14;25.20;43.20
20866;DHT22;10593;48.398;10.698;2023-06-24T11:07:39;25.20;42.90
20866;DHT22;10593;48.398;10.698;2023-06-24T11:10:07;25.20;42.80
20866;DHT22;10593;48.398;10.698;2023-06-24T11:12:37;25.30;43.00
20866;DHT22;10593;48.398;10.698;2023-06-24T11:15:05;25.30;42.90
20866;DHT22;10593;48.398;10.698;2023-06-24T11:17:33;25.30;42.30
20866;DHT22;10593;48.398;10.698;2023-06-24T11:20:01;25.40;42.00
20866;DHT22;10593;48.398;10.698;2023-06-24T11:22:28;25.40;41.60
20866;DHT22;10593;48.398;10.698;2023-06-24T11:24:55;25.40;41.30
20866;DHT22;10593;48.398;10.698;2023-06-24T11:27:26;25.40;41.60
20866;DHT22;10593;48.398;10.698;2023-06-24T11:29:54;25.50;42.00
20866;DHT22;10593;48.398;10.698;2023-06-24T11:32:20;25.40;42.20
20866;DHT22;10593;48.398;10.698;2023-06-24T11:34:47;25.50;42.10
20866;DHT22;10593;48.398;10.698;2023-06-24T11:37:14;25.50;42.00
20866;DHT22;10593;48.398;10.698;2023-06-24T11:39:43;25.50;41.80
20866;DHT22;10593;48.398;10.698;2023-06-24T11:42:09;25.60;41.60
20866;DHT22;10593;48.398;10.698;2023-06-24T11:44:38;25.50;41.20
20866;DHT22;10593;48.398;10.698;2023-06-24T11:47:08;25.60;41.70
20866;DHT22;10593;48.398;10.698;2023-06-24T11:49:52;25.60;41.20
20866;DHT22;10593;48.398;10.698;2023-06-24T11:52:19;25.70;39.50
20866;DHT22;10593;48.398;10.698;2023-06-24T11:54:45;25.70;40.00
20866;DHT22;10593;48.398;10.698;2023-06-24T11:57:11;25.70;39.80
20866;DHT22;10593;48.398;10.698;2023-06-24T11:59:38;25.70;39.50
20866;DHT22;10593;48.398;10.698;2023-06-24T12:02:03;25.70;38.70
20866;DHT22;10593;48.398;10.698;2023-06-24T12:04:33;25.80;38.50
20866;DHT22;10593;48.398;10.698;2023-06-24T12:07:00;25.80;38.90
20866;DHT22;10593;48.398;10.698;2023-06-24T12:09:26;25.80;39.00
20866;DHT22;10593;48.398;10.698;2023-06-24T12:11:52;25.80;39.10
20866;DHT22;10593;48.398;10.698;2023-06-24T12:14:18;25.90;39.10
20866;DHT22;10593;48.398;10.698;2023-06-24T12:16:44;25.90;39.20
20866;DHT22;10593;48.398;10.698;2023-06-24T12:19:10;25.90;38.90
20866;DHT22;10593;48.398;10.698;2023-06-24T12:21:37;25.90;38.60
20866;DHT22;10593;48.398;10.698;2023-06-24T12:24:04;26.00;38.20
20866;DHT22;10593;48.398;10.698;2023-06-24T12:26:31;26.00;37.60
20866;DHT22;10593;48.398;10.698;2023-06-24T12:28:57;26.00;37.00
20866;DHT22;10593;48.398;10.698;2023-06-24T12:31:23;26.00;36.90
20866;DHT22;10593;48.398;10.698;2023-06-24T12:33:50;26.00;37.10
20866;DHT22;10593;48.398;10.698;2023-06-24T12:36:18;26.00;37.10
20866;DHT22;10593;48.398;10.698;2023-06-24T12:38:44;26.10;37.30
20866;DHT22;10593;48.398;10.698;2023-06-24T12:41:09;26.10;37.00
20866;DHT22;10593;48.398;10.698;2023-06-24T12:43:35;26.10;36.80
20866;DHT22;10593;48.398;10.698;2023-06-24T12:46:01;26.10;36.50
20866;DHT22;10593;48.398;10.698;2023-06-24T12:48:26;26.20;36.90
20866;DHT22;10593;48.398;10.698;2023-06-24T12:50:52;26.20;37.30
20866;DHT22;10593;48.398;10.698;2023-06-24T12:53:19;26.20;37.60
20866;DHT22;10593;48.398;10.698;2023-06-24T12:55:46;26.20;38.20
20866;DHT22;10593;48.398;10.698;2023-06-24T12:58:19;26.30;37.70
20866;DHT22;10593;48.398;10.698;2023-06-24T13:00:47;26.30;37.60
20866;DHT22;10593;48.398;10.698;2023-06-24T13:03:13;26.30;36.70
20866;DHT22;10593;48.398;10.698;2023-06-24T13:05:39;26.40;36.40
20866;DHT22;10593;48.398;10.698;2023-06-24T13:08:04;26.40;36.40
20866;DHT22;10593;48.398;10.698;2023-06-24T13:10:31;26.40;36.50
20866;DHT22;10593;48.398;10.698;2023-06-24T13:12:57;26.50;36.50
20866;DHT22;10593;48.398;10.698;2023-06-24T13:15:23;26.40;35.80
20866;DHT22;10593;48.398;10.698;2023-06-24T13:17:49;26.40;35.20
20866;DHT22;10593;48.398;10.698;2023-06-24T13:20:15;26.40;35.30
20866;DHT22;10593;48.398;10.698;2023-06-24T13:22:41;26.50;35.90
20866;DHT22;10593;48.398;10.698;2023-06-24T13:25:07;26.50;36.00
20866;DHT22;10593;48.398;10.698;2023-06-24T13:27:33;26.50;36.40
20866;DHT22;10593;48.398;10.698;2023-06-24T13:29:59;26.50;36.70
20866;DHT22;10593;48.398;10.698;2023-06-24T13:32:24;26.50;36.50
20866;DHT22;10593;48.398;10.698;2023-06-24T13:34:50;26.50;36.40
20866;DHT22;10593;48.398;10.698;2023-06-24T13:37:16;26.40;36.50
20866;DHT22;10593;48.398;10.698;2023-06-24T13:39:41;26.50;36.40
20866;DHT22;10593;48.398;10.698;2023-06-24T13:42:07;26.40;36.50
20866;DHT22;10593;48.398;10.698;2023-06-24T13:44:33;26.40;36.10
20866;DHT22;10593;48.398;10.698;2023-06-24T13:46:59;26.40;36.40
20866;DHT22;10593;48.398;10.698;2023-06-24T13:49:25;26.50;36.10
20866;DHT22;10593;48.398;10.698;2023-06-24T13:51:51;26.50;35.10
20866;DHT22;10593;48.398;10.698;2023-06-24T13:54:17;26.50;34.80
20866;DHT22;10593;48.398;10.698;2023-06-24T13:56:42;26.50;35.10
20866;DHT22;10593;48.398;10.698;2023-06-24T13:59:08;26.50;35.50
20866;DHT22;10593;48.398;10.698;2023-06-24T14:01:35;26.50;35.50
20866;DHT22;10593;48.398;10.698;2023-06-24T14:04:01;26.60;35.80
20866;DHT22;10593;48.398;10.698;2023-06-24T14:06:27;26.60;35.60
20866;DHT22;10593;48.398;10.698;2023-06-24T14:08:53;26.60;35.50
20866;DHT22;10593;48.398;10.698;2023-06-24T14:11:19;26.60;35.80
20866;DHT22;10593;48.398;10.698;2023-06-24T14:13:44;26.60;35.90
20866;DHT22;10593;48.398;10.698;2023-06-24T14:16:11;26.50;35.30
20866;DHT22;10593;48.398;10.698;2023-06-24T14:18:37;26.60;34.90
20866;DHT22;10593;48.398;10.698;2023-06-24T14:21:05;26.60;34.70
20866;DHT22;10593;48.398;10.698;2023-06-24T14:23:32;26.60;34.40
20866;DHT22;10593;48.398;10.698;2023-06-24T14:25:58;26.60;34.70
20866;DHT22;10593;48.398;10.698;2023-06-24T14:28:25;26.70;34.70
20866;DHT22;10593;48.398;10.698;2023-06-24T14:30:51;26.70;34.40
20866;DHT22;10593;48.398;10.698;2023-06-24T14:33:17;26.70;34.30
20866;DHT22;10593;48.398;10.698;2023-06-24T14:35:44;26.70;33.90
20866;DHT22;10593;48.398;10.698;2023-06-24T14:38:10;26.80;33.80
20866;DHT22;10593;48.398;10.698;2023-06-24T14:40:35;26.70;33.90
20866;DHT22;10593;48.398;10.698;2023-06-24T14:43:01;26.70;34.40
20866;DHT22;10593;48.398;10.698;2023-06-24T14:45:26;26.80;34.70
20866;DHT22;10593;48.398;10.698;2023-06-24T14:47:53;26.80;34.20
20866;DHT22;10593;48.398;10.698;2023-06-24T14:50:19;26.80;34.40
20866;DHT22;10593;48.398;10.698;2023-06-24T14:52:45;26.90;34.80
20866;DHT22;10593;48.398;10.698;2023-06-24T14:55:10;26.80;34.40
20866;DHT22;10593;48.398;10.698;2023-06-24T14:57:36;26.90;34.40
20866;DHT22;10593;48.398;10.698;2023-06-24T15:00:03;26.80;34.10
20866;DHT22;10593;48.398;10.698;2023-06-24T15:02:30;26.80;34.10
20866;DHT22;10593;48.398;10.698;2023-06-24T15:04:55;26.80;33.90
20866;DHT22;10593;48.398;10.698;2023-06-24T15:07:21;26.90;33.60
20866;DHT22;10593;48.398;10.698;2023-06-24T15:09:47;26.80;33.10
20866;DHT22;10593;48.398;10.698;2023-06-24T15:12:12;26.90;33.40
20866;DHT22;10593;48.398;10.698;2023-06-24T15:14:38;26.80;33.50
20866;DHT22;10593;48.398;10.698;2023-06-24T15:17:04;26.90;34.10
20866;DHT22;10593;48.398;10.698;2023-06-24T15:19:30;26.90;34.90
20866;DHT22;10593;48.398;10.698;2023-06-24T15:21:55;26.90;34.30
20866;DHT22;10593;48.398;10.698;2023-06-24T15:24:21;26.90;34.40
20866;DHT22;10593;48.398;10.698;2023-06-24T15:26:47;27.00;34.30
20866;DHT22;10593;48.398;10.698;2023-06-24T15:29:12;27.00;34.00
20866;DHT22;10593;48.398;10.698;2023-06-24T15:31:38;27.00;33.60